Accueil
METAR-TAF:

METAR-TAF

Aéroports :

Aéroport de Friedrichshafen

Friedrichshafen, Allemagne

latitude: 47-40N, longitude: 009-31E, altitude: 416 m

Observation

Le bulletin a été fait il y a 37 minutes, à 02:50 UTC
Vent 5 kt de est
Température 2°C
Humidité 87%
Pression 1024 hPa
Visibilité: 9000 m

METAR: EDNY 240250Z AUTO 09005KT 9000 // NCD 02/M00 Q1024

Heure: 04:27 (03:27 UTC)

Prévision

Le bulletin a été fait il y a 4 heures et 27 minutes, à 23:00 UTC
Prévision valable du 24 à 00 UTC au 24 à 24 UTC
Vent 2 kt de direction variable
Visibilité 10 km ou plus
pas de nuages en-dessous de 1500 mètres et pas de cumulonimbus.
Evoluant progressivement
du 24 à 10 UTC au 24 à 12 UTC
Vent 6 kt de ouest/sud-ouest
Evoluant progressivement
du 24 à 17 UTC au 24 à 19 UTC
Vent 3 kt de nord-ouest

TAF: EDNY 232300Z 2400/2424 VRB02KT CAVOK BECMG 2410/2412 24006KT BECMG 2417/2419 32003KT

Observations et prévisions météorologiques de plus de 4000 aéroports (messages METAR et TAF).

Les stations disponibles sont représentées par des disques jaunes et rouges sur la carte.

Passer la souris dessus pour voir le nom de la station.

Cliquer dessus pour voir les observations et prévisions météorologiques.

Pour changer de carte: cliquez sur les boutons verts avec une croix noire pour zoomer, sur le bouton vert avec un tiret pour effectuer un zoom arrière, ou sur les flèches vertes pour les cartes adjacentes.


METAR-TAF: